Time;durP1;ratioP1;P1;durP2;ratioP2;P2;SDS_P1;SDS_P2;PMS_P1;PMS_P2;Temp;Humidity;BMP_temperature;BMP_pressure;BME280_temperature;BME280_humidity;BME280_pressure;Samples;Min_cycle;Max_cycle;Signal;HPM_P1;HPM_P2
2021/12/08 00:00:56;;;;;;;34.92;16.15;;;;;;;-5.51;65.85;101787.41;5035138;28;20041;-73
2021/12/08 00:03:30;;;;;;;47.33;16.42;;;;;;;-5.41;65.16;101805.13;5035573;28;20108;-70
2021/12/08 00:05:59;;;;;;;39.22;15.63;;;;;;;-5.40;64.96;101800.91;5034988;28;20068;-72
2021/12/08 00:08:30;;;;;;;44.92;15.70;;;;;;;-5.37;65.42;101804.53;5035541;28;20983;-72
2021/12/08 00:13:44;;;;;;;39.63;15.25;;;;;;;-5.09;65.81;101798.88;5034731;28;20053;-70
2021/12/08 00:16:14;;;;;;;52.25;18.02;;;;;;;-5.01;65.05;101801.22;5035077;28;20248;-71
2021/12/08 00:18:47;;;;;;;;;;;;;;;-4.85;65.48;101812.50;5035788;28;20233;-71
2021/12/08 00:21:17;;;;;;;58.65;20.20;;;;;;;-4.75;65.21;101814.03;5035407;28;19924;-71
2021/12/08 00:23:46;;;;;;;85.40;26.55;;;;;;;-4.72;64.26;101819.31;5032523;28;20048;-71
2021/12/08 00:26:15;;;;;;;49.97;18.60;;;;;;;-4.63;64.29;101819.97;5034527;28;20108;-72
2021/12/08 00:28:43;;;;;;;51.67;18.02;;;;;;;-4.59;64.60;101822.84;5033795;28;20072;-71
2021/12/08 00:31:12;;;;;;;55.75;17.75;;;;;;;-4.45;65.41;101799.94;5034744;28;20050;-69
2021/12/08 00:33:41;;;;;;;53.38;19.73;;;;;;;-4.41;64.53;101802.81;5034741;28;20104;-70
2021/12/08 00:36:14;;;;;;;46.47;17.65;;;;;;;-4.30;64.21;101801.00;5034642;28;20055;-71
2021/12/08 00:38:43;;;;;;;40.30;17.58;;;;;;;-4.18;64.34;101803.50;5035002;28;20147;-69
2021/12/08 00:41:12;;;;;;;55.13;17.77;;;;;;;-4.11;64.32;101795.47;5035042;28;20049;-69
2021/12/08 00:43:42;;;;;;;45.95;16.15;;;;;;;-4.09;64.37;101790.47;4981269;28;70802;-69
2021/12/08 00:46:10;;;;;;;;;;;;;;;-3.95;63.98;101795.72;5024986;28;20046;-69
2021/12/08 00:48:43;;;;;;;40.53;16.42;;;;;;;-3.83;64.27;101794.78;5025494;28;20001;-70
2021/12/08 00:51:13;;;;;;;51.25;18.70;;;;;;;-3.86;63.74;101774.16;5024507;28;20065;-69
2021/12/08 00:53:42;;;;;;;60.45;21.45;;;;;;;-3.73;63.94;101792.03;5024616;28;20041;-70
2021/12/08 00:56:11;;;;;;;71.18;23.85;;;;;;;-3.55;63.54;101813.66;5024367;28;20033;-68
2021/12/08 00:58:40;;;;;;;103.88;28.55;;;;;;;-3.43;63.70;101812.72;5024763;28;20074;-71
2021/12/08 01:01:09;;;;;;;84.07;26.17;;;;;;;-3.15;64.51;101826.47;5024748;28;20050;-70
2021/12/08 01:03:38;;;;;;;92.40;28.30;;;;;;;-3.02;63.53;101802.59;5024897;28;20055;-69
2021/12/08 01:06:07;;;;;;;64.13;25.08;;;;;;;-2.77;63.39;101819.44;5024740;28;20042;-70
2021/12/08 01:08:37;;;;;;;66.88;24.50;;;;;;;-2.70;62.92;101812.25;5024806;28;20073;-70
2021/12/08 01:11:09;;;;;;;52.55;21.13;;;;;;;-2.69;62.94;101798.69;5024820;28;20050;-70
2021/12/08 01:13:38;;;;;;;53.67;20.42;;;;;;;-2.47;63.32;101807.66;5024882;28;20143;-70
2021/12/08 01:16:07;;;;;;;55.95;21.63;;;;;;;-2.30;62.83;101818.91;5024134;28;20049;-70
2021/12/08 01:18:36;;;;;;;65.40;22.60;;;;;;;-2.17;63.11;101817.22;5024737;28;20117;-71
2021/12/08 01:21:08;;;;;;;60.17;21.92;;;;;;;-2.17;62.79;101796.72;5022414;28;20112;-70
2021/12/08 01:23:39;;;;;;;51.22;21.92;;;;;;;-2.04;62.84;101797.44;5023743;28;20076;-72
2021/12/08 01:26:10;;;;;;;57.20;20.92;;;;;;;-1.80;63.12;101811.72;5023554;28;20445;-71
2021/12/08 01:28:39;;;;;;;58.67;20.23;;;;;;;-1.73;62.54;101806.13;5024021;28;20112;-71
2021/12/08 01:31:08;;;;;;;52.30;18.50;;;;;;;-1.59;62.14;101798.38;5024187;28;20095;-71
2021/12/08 01:33:37;;;;;;;56.90;19.38;;;;;;;-1.34;62.10;101811.78;5024253;28;20042;-70
2021/12/08 01:36:07;;;;;;;54.70;19.80;;;;;;;-1.21;60.31;101812.47;5024814;28;20056;-70
2021/12/08 01:38:38;;;;;;;48.80;21.05;;;;;;;-1.19;60.24;101796.38;5024420;28;20053;-70
2021/12/08 01:41:07;;;;;;;44.83;19.33;;;;;;;-0.92;60.95;101811.53;5024283;28;20046;-70
2021/12/08 01:45:56;;;;;;;66.45;22.20;;;;;;;-0.77;59.96;101811.47;5024103;28;20058;-71
2021/12/08 01:46:31;;;;;;;58.42;20.05;;;;;;;-0.63;59.85;101795.13;5023819;28;20052;-71
2021/12/08 01:49:01;;;;;;;38.97;15.45;;;;;;;-0.49;59.39;101794.16;5024021;28;20256;-70
2021/12/08 01:51:30;;;;;;;45.75;18.70;;;;;;;-0.31;58.62;101798.50;5023123;28;20244;-71
2021/12/08 01:54:02;;;;;;;41.22;16.70;;;;;;;-0.15;58.37;101785.66;5022916;28;20085;-71
2021/12/08 01:56:33;;;;;;;37.25;15.88;;;;;;;-0.09;57.84;101775.69;5023650;28;20108;-70
2021/12/08 01:59:03;;;;;;;36.03;15.20;;;;;;;-0.02;57.40;101772.63;5022724;28;20184;-70
2021/12/08 02:01:35;;;;;;;36.50;15.57;;;;;;;0.22;57.14;101772.09;5023734;28;20053;-71
2021/12/08 02:04:06;;;;;;;45.30;18.95;;;;;;;0.43;57.29;101783.44;5023712;28;20987;-70
2021/12/08 02:06:36;;;;;;;42.42;17.75;;;;;;;0.39;56.26;101772.94;5023535;28;20282;-71
2021/12/08 02:09:09;;;;;;;40.83;17.48;;;;;;;0.29;55.86;101779.31;5023837;28;20056;-71
2021/12/08 02:11:38;;;;;;;53.63;18.25;;;;;;;0.31;56.33;101780.25;5023680;28;20256;-71
2021/12/08 02:14:07;;;;;;;54.65;19.15;;;;;;;0.26;56.00;101779.16;5023916;28;20655;-71
2021/12/08 02:16:36;;;;;;;42.72;16.45;;;;;;;0.19;56.54;101762.53;5023459;28;20081;-71
2021/12/08 02:19:05;;;;;;;39.33;15.82;;;;;;;0.18;56.64;101755.66;5022545;28;20050;-71
2021/12/08 02:21:38;;;;;;;48.50;17.95;;;;;;;0.13;57.33;101771.66;5023615;28;20081;-70
2021/12/08 02:24:10;;;;;;;44.03;18.70;;;;;;;0.12;57.45;101744.16;5024076;28;20292;-70
2021/12/08 02:26:40;;;;;;;43.70;19.50;;;;;;;0.41;57.63;101763.59;5022949;28;20077;-70
2021/12/08 02:29:12;;;;;;;38.65;16.83;;;;;;;0.45;57.76;101769.75;5021967;28;20198;-71
2021/12/08 02:31:50;;;;;;;51.55;18.75;;;;;;;0.63;57.16;101765.53;5021437;28;20891;-70
2021/12/08 02:48:08;;;;;;;34.42;10.95;;;;;;;1.18;56.58;101768.13;5026830;28;20060;-70
2021/12/08 02:50:40;;;;;;;23.63;5.65;;;;;;;1.37;56.42;101756.06;5025961;28;20050;-71
2021/12/08 02:53:12;;;;;;;9.77;3.70;;;;;;;1.33;54.74;101756.75;5026105;28;20291;-72
2021/12/08 02:55:42;;;;;;;7.72;2.90;;;;;;;1.28;55.12;101744.53;5025202;28;20430;-71
2021/12/08 02:58:11;;;;;;;;;;;;;;;1.45;54.85;101757.31;5026188;28;20049;-71
2021/12/08 03:00:43;;;;;;;7.20;3.28;;;;;;;1.31;55.08;101712.03;5025443;28;19925;-71
2021/12/08 03:03:12;;;;;;;11.20;4.15;;;;;;;1.56;55.44;101747.47;5025330;28;20121;-70
2021/12/08 03:05:41;;;;;;;10.27;4.13;;;;;;;1.56;55.04;101748.34;5022247;28;20059;-70
2021/12/08 03:08:12;;;;;;;8.07;2.72;;;;;;;1.58;54.93;101749.28;5026358;28;20064;-70
2021/12/08 03:10:44;;;;;;;12.93;3.05;;;;;;;1.37;54.98;101712.28;5023489;28;20064;-70
2021/12/08 03:13:12;;;;;;;10.00;3.75;;;;;;;1.54;54.68;101751.66;5026271;28;20426;-70
2021/12/08 03:15:42;;;;;;;4.90;2.90;;;;;;;1.47;55.39;101740.19;5025893;28;20053;-72
2021/12/08 03:18:11;;;;;;;10.88;3.33;;;;;;;1.55;55.31;101738.88;5026505;28;20076;-70
2021/12/08 03:20:40;;;;;;;7.55;2.58;;;;;;;1.47;55.61;101715.34;5025782;28;20049;-70
2021/12/08 03:23:15;;;;;;;6.10;2.75;;;;;;;1.43;55.11;101707.41;5022987;28;20042;-70
2021/12/08 03:25:54;;;;;;;8.40;2.60;;;;;;;1.51;55.08;101726.66;5026004;28;20364;-70
2021/12/08 03:28:28;;;;;;;9.68;3.05;;;;;;;1.49;55.39;101720.53;5026495;28;20116;-71
2021/12/08 03:31:02;;;;;;;5.97;2.42;;;;;;;1.48;55.01;101716.22;5023969;28;20077;-71
2021/12/08 03:33:31;;;;;;;7.03;2.78;;;;;;;1.54;54.78;101720.75;5026030;28;20045;-70
2021/12/08 03:36:00;;;;;;;6.00;2.67;;;;;;;1.49;54.62;101715.41;5026691;28;20692;-71
2021/12/08 03:38:31;;;;;;;12.07;3.10;;;;;;;1.41;53.72;101709.03;5026062;28;20117;-70
2021/12/08 03:41:02;;;;;;;7.30;3.13;;;;;;;1.40;53.48;101691.81;5026361;28;20295;-71
2021/12/08 03:43:31;;;;;;;9.20;2.88;;;;;;;1.45;54.18;101696.38;5026208;28;20084;-70
2021/12/08 03:46:01;;;;;;;12.52;2.55;;;;;;;1.44;54.02;101698.84;5026255;28;20144;-70
2021/12/08 03:48:38;;;;;;;8.20;2.63;;;;;;;1.52;53.84;101697.50;5025358;28;20220;-71
2021/12/08 03:51:07;;;;;;;7.25;2.92;;;;;;;1.50;52.86;101697.44;5026197;28;20049;-71
2021/12/08 03:53:37;;;;;;;11.55;3.10;;;;;;;1.55;53.00;101707.94;5025957;28;20070;-70
2021/12/08 03:56:07;;;;;;;6.68;2.30;;;;;;;1.51;53.32;101688.88;5026143;28;20073;-71
2021/12/08 03:58:35;;;;;;;8.88;2.55;;;;;;;1.55;53.13;101707.03;4923071;28;126979;-71
2021/12/08 04:01:05;;;;;;;5.03;2.92;;;;;;;1.53;52.92;101704.41;4914830;28;101724;-71
2021/12/08 04:03:34;;;;;;;;;;;;;;;1.62;52.29;101719.38;5045959;28;20112;-71
2021/12/08 04:06:07;;;;;;;5.53;2.88;;;;;;;1.65;52.70;101712.69;5045479;28;19925;-71
2021/12/08 04:08:43;;;;;;;9.77;2.60;;;;;;;1.55;51.98;101700.22;5045684;28;20055;-71
2021/12/08 04:11:14;;;;;;;7.03;2.78;;;;;;;1.58;52.35;101705.50;5045275;28;20372;-70
2021/12/08 04:13:46;;;;;;;5.00;2.30;;;;;;;1.66;52.30;101711.84;5045469;28;20049;-70
2021/12/08 04:16:18;;;;;;;6.07;2.33;;;;;;;1.57;51.21;101701.13;5045518;28;20076;-71
2021/12/08 04:18:47;;;;;;;9.88;3.50;;;;;;;1.66;52.49;101713.56;5045323;28;20112;-71
2021/12/08 04:21:17;;;;;;;7.05;2.22;;;;;;;1.65;51.84;101707.53;5045484;28;20225;-70
2021/12/08 04:23:48;;;;;;;11.73;2.90;;;;;;;1.66;52.45;101709.28;5045272;28;20306;-72
2021/12/08 04:26:21;;;;;;;7.78;2.60;;;;;;;1.70;52.70;101718.91;5044100;28;20065;-70
2021/12/08 04:28:49;;;;;;;5.60;2.47;;;;;;;1.69;52.11;101717.13;5044491;28;20050;-71
2021/12/08 04:31:24;;;;;;;5.75;2.40;;;;;;;1.67;51.74;101712.72;5044752;28;20041;-72
2021/12/08 04:33:55;;;;;;;5.22;2.80;;;;;;;1.64;51.00;101718.63;5044576;28;20091;-71
2021/12/08 04:36:25;;;;;;;7.32;2.80;;;;;;;1.65;50.93;101735.88;5043665;28;20055;-71
2021/12/08 04:38:58;;;;;;;5.97;2.70;;;;;;;1.58;51.15;101723.53;5043775;28;20048;-71
2021/12/08 04:41:35;;;;;;;5.00;2.50;;;;;;;1.68;51.50;101748.88;5044438;28;20041;-71
2021/12/08 04:44:11;;;;;;;8.05;2.25;;;;;;;1.66;52.61;101737.63;5044799;28;20236;-70
2021/12/08 04:46:59;;;;;;;8.30;2.90;;;;;;;1.59;52.91;101725.28;5044871;28;20053;-72
2021/12/08 04:49:55;;;;;;;10.50;2.83;;;;;;;1.57;53.27;101726.91;5044833;28;20087;-71
2021/12/08 04:52:33;;;;;;;6.25;2.58;;;;;;;1.66;53.18;101747.94;5043604;28;20741;-70
2021/12/08 05:01:12;;;;;;;9.50;3.15;;;;;;;1.50;53.29;101724.91;5026385;28;20054;-71
2021/12/08 05:04:01;;;;;;;4.18;2.25;;;;;;;1.56;52.70;101750.91;5024521;28;20115;-73
2021/12/08 05:06:40;;;;;;;5.57;2.40;;;;;;;1.53;51.75;101750.78;5024656;28;20140;-73
2021/12/08 05:09:14;;;;;;;4.57;2.13;;;;;;;1.26;49.82;101710.13;5024868;28;20248;-71
2021/12/08 05:11:50;;;;;;;5.05;2.85;;;;;;;1.44;49.31;101764.13;5024730;28;20319;-72
2021/12/08 05:14:26;;;;;;;7.35;2.22;;;;;;;1.42;48.49;101757.16;5024609;28;20049;-71
2021/12/08 05:17:00;;;;;;;6.63;2.47;;;;;;;1.38;48.78;101760.41;5024522;28;20105;-70
2021/12/08 05:19:34;;;;;;;10.25;2.53;;;;;;;1.22;48.95;101744.28;4923036;28;82537;-69
2021/12/08 05:22:07;;;;;;;6.40;2.28;;;;;;;1.27;49.81;101773.69;4957917;28;20091;-71
2021/12/08 05:24:39;;;;;;;9.48;2.30;;;;;;;1.29;49.66;101772.03;5044323;28;20049;-70
2021/12/08 05:27:14;;;;;;;7.93;2.83;;;;;;;1.24;49.77;101777.81;5044177;28;20060;-72
2021/12/08 05:29:49;;;;;;;8.18;2.50;;;;;;;1.17;50.51;101774.06;5043850;28;20131;-70
2021/12/08 05:32:18;;;;;;;8.02;2.33;;;;;;;1.06;49.46;101746.94;5042227;28;20055;-71
2021/12/08 05:34:47;;;;;;;10.27;2.65;;;;;;;1.11;50.56;101765.19;5042987;28;20251;-69
2021/12/08 05:37:19;;;;;;;8.50;2.20;;;;;;;0.98;50.52;101758.59;5042988;28;20045;-70
2021/12/08 05:39:49;;;;;;;5.82;2.55;;;;;;;1.09;49.93;101790.84;5042647;28;20667;-70
2021/12/08 05:42:22;;;;;;;7.88;2.53;;;;;;;0.84;50.74;101752.78;5029895;28;81222;-72
2021/12/08 05:44:52;;;;;;;5.75;2.35;;;;;;;0.92;50.86;101768.59;5024486;28;20049;-72
2021/12/08 05:47:27;;;;;;;13.77;2.40;;;;;;;0.95;51.81;101784.16;5023857;28;20108;-73
2021/12/08 05:49:56;;;;;;;7.88;2.45;;;;;;;0.92;51.23;101799.47;5024026;28;20080;-71
2021/12/08 05:52:25;;;;;;;5.45;2.83;;;;;;;0.68;52.27;101756.34;5024341;28;20304;-71
2021/12/08 05:54:54;;;;;;;5.13;2.28;;;;;;;0.77;53.04;101795.34;5023863;28;20221;-70
2021/12/08 05:57:29;;;;;;;10.33;2.93;;;;;;;0.66;52.59;101791.41;5023878;28;20068;-72
2021/12/08 05:59:59;;;;;;;10.35;3.13;;;;;;;0.74;52.41;101815.78;5023753;28;20630;-72
2021/12/08 06:02:31;;;;;;;6.88;2.55;;;;;;;0.67;53.56;101820.56;5023696;28;20077;-71
2021/12/08 06:05:02;;;;;;;14.18;2.95;;;;;;;0.59;53.53;101815.06;5024508;28;20741;-72
2021/12/08 06:08:39;;;;;;;11.95;2.90;;;;;;;0.52;52.96;101828.41;5132950;27;20350;-71
2021/12/08 06:11:13;;;;;;;12.48;2.88;;;;;;;0.46;53.69;101823.84;5111917;28;20052;-71
2021/12/08 06:13:47;;;;;;;10.77;2.42;;;;;;;0.21;53.37;101796.03;4978372;28;20303;-72
2021/12/08 06:16:21;;;;;;;8.63;3.10;;;;;;;0.32;54.42;101830.88;4987176;28;20068;-72
2021/12/08 06:18:53;;;;;;;11.70;5.38;;;;;;;0.21;54.29;101821.75;5070514;28;20071;-72
2021/12/08 06:21:25;;;;;;;25.90;9.63;;;;;;;0.15;54.75;101816.28;5071029;28;20049;-71
2021/12/08 06:24:00;;;;;;;18.40;3.38;;;;;;;0.01;55.72;101822.44;5070639;28;20044;-71
2021/12/08 06:26:31;;;;;;;26.63;3.63;;;;;;;-0.17;57.46;101823.25;5070650;28;20041;-70
2021/12/08 06:29:02;;;;;;;9.95;3.20;;;;;;;-0.35;58.19;101819.69;5070993;28;20331;-72
2021/12/08 06:31:34;;;;;;;19.92;3.25;;;;;;;-0.44;61.32;101818.41;5070815;28;20438;-72
2021/12/08 06:34:06;;;;;;;13.93;3.83;;;;;;;-0.51;61.36;101818.88;5070314;28;20041;-70
2021/12/08 06:36:40;;;;;;;8.98;3.13;;;;;;;-0.63;62.54;101825.91;5070612;28;20358;-70
2021/12/08 06:39:18;;;;;;;7.07;2.80;;;;;;;-0.94;61.18;101829.38;5070474;28;20074;-72
2021/12/08 06:41:52;;;;;;;11.32;3.58;;;;;;;-1.16;60.93;101850.38;5070385;28;20059;-72
2021/12/08 06:44:26;;;;;;;8.75;4.25;;;;;;;-1.48;60.99;101835.72;5070251;28;20239;-70
2021/12/08 06:46:59;;;;;;;29.85;11.57;;;;;;;-2.03;61.73;101819.69;5070284;28;20058;-71
2021/12/08 06:49:31;;;;;;;78.65;29.70;;;;;;;-2.24;62.76;101839.78;5070252;28;20044;-71
2021/12/08 06:52:06;;;;;;;639.03;240.68;;;;;;;-2.31;64.13;101864.13;5070232;28;20085;-72
2021/12/08 06:54:41;;;;;;;379.08;121.10;;;;;;;-2.39;64.18;101870.47;5070435;28;20049;-69
2021/12/08 06:57:18;;;;;;;437.13;160.68;;;;;;;-2.53;64.04;101868.72;5069705;28;20128;-71
2021/12/08 06:59:57;;;;;;;372.52;159.32;;;;;;;-2.67;64.12;101861.06;5069388;28;20084;-71
2021/12/08 07:06:03;;;;;;;29.13;14.63;;;;;;;-2.96;64.98;101878.81;5142635;27;20345;-70
2021/12/08 07:08:28;;;;;;;19.33;8.63;;;;;;;-3.03;65.13;101891.19;5121121;28;20047;-71
2021/12/08 07:10:58;;;;;;;20.15;8.32;;;;;;;-3.12;64.99;101877.81;5065325;28;20126;-70
2021/12/08 07:13:33;;;;;;;12.77;6.53;;;;;;;-3.10;65.20;101891.56;5023536;28;20066;-70
2021/12/08 07:16:27;;;;;;;20.63;8.05;;;;;;;-3.11;65.53;101881.25;5050920;28;20052;-72
2021/12/08 07:19:02;;;;;;;10.57;4.63;;;;;;;-3.17;66.23;101879.19;5050963;28;20108;-72
2021/12/08 07:21:39;;;;;;;24.25;3.58;;;;;;;-3.26;66.30;101878.59;5051034;28;20060;-70
2021/12/08 07:24:15;;;;;;;174.50;34.80;;;;;;;-3.40;66.45;101879.34;5050937;28;20052;-70
2021/12/08 07:26:50;;;;;;;29.85;8.05;;;;;;;-3.65;67.53;101880.28;5050929;28;20103;-70
2021/12/08 07:29:26;;;;;;;65.90;14.40;;;;;;;-3.79;67.84;101879.38;5050329;28;20045;-68
2021/12/08 07:31:59;;;;;;;24.95;9.13;;;;;;;-3.76;68.27;101884.66;5017068;28;20124;-71
2021/12/08 07:34:32;;;;;;;27.60;9.57;;;;;;;-3.85;68.38;101888.28;5050572;28;20053;-70
2021/12/08 07:37:08;;;;;;;222.10;52.60;;;;;;;-4.04;68.17;101892.13;5050584;28;20108;-69
2021/12/08 07:39:44;;;;;;;95.20;24.95;;;;;;;-4.24;69.05;101894.97;5050844;28;20326;-69
2021/12/08 07:42:20;;;;;;;72.38;27.88;;;;;;;-4.31;69.80;101891.13;5049637;28;20053;-72
2021/12/08 07:44:54;;;;;;;79.00;25.25;;;;;;;-4.44;69.37;101876.63;5030196;28;20057;-69
2021/12/08 07:47:27;;;;;;;28.77;8.88;;;;;;;-4.28;69.70;101896.41;5028592;28;20049;-73
2021/12/08 07:50:01;;;;;;;25.08;6.30;;;;;;;-4.27;69.76;101897.31;5029900;28;20046;-72
2021/12/08 07:52:35;;;;;;;59.25;8.88;;;;;;;-4.37;69.76;101883.94;5029404;28;20050;-70
2021/12/08 07:55:09;;;;;;;33.60;9.00;;;;;;;-4.30;69.51;101897.09;5030898;28;20096;-71
2021/12/08 07:57:40;;;;;;;40.40;9.60;;;;;;;-4.42;69.24;101882.72;5030505;28;20057;-72
2021/12/08 08:00:16;;;;;;;412.60;103.53;;;;;;;-4.37;69.75;101906.91;5030277;28;20344;-74
2021/12/08 08:02:47;;;;;;;354.58;87.13;;;;;;;-4.34;69.89;101912.19;5030293;28;20091;-71
2021/12/08 08:05:22;;;;;;;266.92;65.03;;;;;;;-4.42;69.52;101905.69;5029179;28;20118;-73
2021/12/08 08:07:54;;;;;;;75.07;19.70;;;;;;;-4.38;69.78;101902.53;5030026;28;20209;-71
2021/12/08 08:10:27;;;;;;;30.40;8.90;;;;;;;-4.46;69.04;101875.63;5029543;28;20280;-70
2021/12/08 08:13:01;;;;;;;13.75;5.28;;;;;;;-4.19;69.05;101906.41;5030025;28;20049;-72
2021/12/08 08:15:36;;;;;;;22.58;5.30;;;;;;;-4.07;68.81;101917.44;5023757;28;20056;-71
2021/12/08 08:18:11;;;;;;;90.78;25.38;;;;;;;-4.13;68.47;101917.03;5017145;28;20056;-70
2021/12/08 08:20:47;;;;;;;181.43;58.88;;;;;;;-4.28;68.91;101915.97;5016956;28;20111;-69
2021/12/08 08:23:23;;;;;;;32.85;12.40;;;;;;;-4.42;69.10;101918.44;5016872;28;20056;-72
2021/12/08 08:25:57;;;;;;;23.23;7.22;;;;;;;-4.63;69.56;101896.50;5016750;28;20045;-71
2021/12/08 08:28:28;;;;;;;18.02;6.75;;;;;;;-4.65;69.43;101887.84;5016487;28;20050;-70
2021/12/08 08:31:03;;;;;;;39.10;11.60;;;;;;;-4.57;69.72;101924.97;5016435;28;20320;-71
2021/12/08 08:33:37;;;;;;;39.05;11.73;;;;;;;-4.67;70.04;101920.88;5016413;28;20045;-71
2021/12/08 08:36:14;;;;;;;103.00;25.85;;;;;;;-4.78;70.24;101907.38;5016667;28;20113;-70
2021/12/08 08:38:51;;;;;;;118.47;31.23;;;;;;;-4.66;70.36;101937.97;5013748;28;20054;-71
2021/12/08 08:41:26;;;;;;;47.63;14.38;;;;;;;-4.69;70.54;101936.84;5016199;28;20049;-71
2021/12/08 08:44:00;;;;;;;28.67;6.55;;;;;;;-4.79;70.73;101926.03;5016042;28;20168;-71
2021/12/08 08:46:34;;;;;;;27.95;9.00;;;;;;;-4.80;70.71;101924.22;5016262;28;20960;-70
2021/12/08 08:49:08;;;;;;;60.90;17.33;;;;;;;-4.88;70.66;101930.44;5014704;28;20054;-72
2021/12/08 08:51:42;;;;;;;37.13;11.27;;;;;;;-4.97;70.99;101939.97;5016083;28;20034;-70
2021/12/08 08:54:20;;;;;;;27.52;6.25;;;;;;;-5.01;71.35;101935.44;5015980;28;20085;-72
2021/12/08 08:56:55;;;;;;;14.27;4.40;;;;;;;-5.04;71.43;101955.59;5016012;28;20057;-72
2021/12/08 08:59:30;;;;;;;12.60;4.88;;;;;;;-5.10;71.90;101957.69;5013946;28;20136;-69
2021/12/08 09:02:07;;;;;;;11.05;4.57;;;;;;;-5.13;71.94;101972.78;5014984;28;20711;-70
2021/12/08 09:04:42;;;;;;;10.38;3.45;;;;;;;-5.11;71.91;101971.22;5015086;28;20065;-71
2021/12/08 09:07:21;;;;;;;9.02;3.22;;;;;;;-5.16;71.99;101962.34;5015752;28;20344;-70
2021/12/08 09:09:56;;;;;;;6.63;2.83;;;;;;;-5.02;71.78;101992.28;5014557;28;20050;-71
2021/12/08 09:12:33;;;;;;;8.40;3.42;;;;;;;-5.05;71.86;101981.84;5014261;28;20113;-70
2021/12/08 09:15:10;;;;;;;46.95;9.20;;;;;;;-5.00;71.77;101985.63;5015254;28;20069;-71
2021/12/08 09:17:45;;;;;;;59.78;11.70;;;;;;;-5.27;71.57;101952.22;5014335;28;20113;-69
2021/12/08 09:20:23;;;;;;;54.92;12.77;;;;;;;-5.05;71.40;101994.59;5014562;28;20046;-71
2021/12/08 09:22:58;;;;;;;39.50;9.38;;;;;;;-5.09;71.75;101990.94;5013598;28;20568;-70
2021/12/08 09:25:39;;;;;;;18.92;5.18;;;;;;;-5.23;71.66;101979.72;5014047;28;20053;-70
2021/12/08 09:28:16;;;;;;;21.27;5.43;;;;;;;-5.23;71.81;101997.56;5014612;28;20085;-70
2021/12/08 09:30:55;;;;;;;11.27;4.82;;;;;;;-5.20;71.68;102007.09;5015066;28;20144;-70
2021/12/08 09:33:36;;;;;;;18.45;7.28;;;;;;;-5.16;72.21;101998.91;5015451;28;20096;-69
2021/12/08 09:36:15;;;;;;;29.17;8.93;;;;;;;-5.22;72.45;101993.34;5015645;28;20046;-71
2021/12/08 09:38:50;;;;;;;67.35;19.45;;;;;;;-5.15;72.16;102007.44;5014793;28;20121;-72
2021/12/08 09:41:32;;;;;;;58.35;18.35;;;;;;;-5.23;72.58;102005.19;5014024;28;20088;-72
2021/12/08 09:44:07;;;;;;;63.17;17.63;;;;;;;-5.26;72.12;102007.53;5013366;28;20056;-71
2021/12/08 09:46:41;;;;;;;30.15;11.43;;;;;;;-5.36;72.83;101988.91;5015209;28;20968;-72
2021/12/08 09:49:15;;;;;;;24.65;8.38;;;;;;;-5.34;73.21;102002.59;5014688;28;20048;-71
2021/12/08 09:51:47;;;;;;;16.33;6.88;;;;;;;-5.38;73.42;102006.59;5014627;28;20064;-70
2021/12/08 09:54:19;;;;;;;8.25;4.20;;;;;;;-5.44;73.20;102007.03;5014746;28;20614;-70
2021/12/08 09:56:53;;;;;;;11.10;4.32;;;;;;;-5.49;73.37;102007.44;5014070;28;20050;-71
2021/12/08 09:59:25;;;;;;;7.20;3.67;;;;;;;-5.57;73.10;102008.50;5014794;28;20058;-71
2021/12/08 10:01:57;;;;;;;17.38;8.00;;;;;;;-5.75;73.43;101998.69;5014898;28;20065;-71
2021/12/08 10:04:30;;;;;;;30.33;12.27;;;;;;;-5.80;73.21;101994.91;5014489;28;20368;-71
2021/12/08 10:07:05;;;;;;;260.85;93.57;;;;;;;-5.71;73.60;102010.91;5014554;28;20081;-71
2021/12/08 10:09:38;;;;;;;103.38;42.05;;;;;;;-5.63;73.07;102025.09;5014545;28;20065;-71
2021/12/08 10:12:12;;;;;;;182.48;60.83;;;;;;;-5.58;72.98;102019.47;5014718;28;20073;-70
2021/12/08 10:14:46;;;;;;;227.05;76.30;;;;;;;-5.54;72.70;102024.94;5014483;28;20387;-71
2021/12/08 10:17:17;;;;;;;99.30;36.08;;;;;;;-5.39;73.61;102030.31;5014580;28;20230;-70
2021/12/08 10:20:11;;;;;;;291.67;51.72;;;;;;;-5.50;74.22;101988.72;5014484;28;20042;-71
2021/12/08 10:22:45;;;;;;;244.57;46.08;;;;;;;-5.26;73.35;102037.22;5014235;28;20057;-71
2021/12/08 10:25:19;;;;;;;383.83;69.78;;;;;;;-5.39;72.62;102025.22;5014229;28;20077;-71
2021/12/08 10:28:15;;;;;;;239.30;47.60;;;;;;;-5.44;73.41;102029.06;5014080;28;20336;-71
2021/12/08 10:30:52;;;;;;;371.85;73.90;;;;;;;-5.51;73.37;102032.81;5012471;28;20041;-70
2021/12/08 10:33:58;;;;;;;322.17;68.30;;;;;;;-5.55;73.48;102032.44;5013065;28;20041;-69
2021/12/08 10:36:46;;;;;;;240.73;50.60;;;;;;;-5.67;73.38;102023.06;5012380;28;20278;-71
2021/12/08 10:39:28;;;;;;;85.18;22.67;;;;;;;-5.85;73.07;101996.22;5013532;28;20351;-70
2021/12/08 10:42:03;;;;;;;24.25;7.07;;;;;;;-5.79;72.80;102032.34;5014228;28;20082;-71
2021/12/08 10:44:53;;;;;;;45.67;14.20;;;;;;;-5.75;73.10;102021.59;5013767;28;20057;-70
2021/12/08 10:47:31;;;;;;;196.27;44.50;;;;;;;-5.61;72.72;102016.72;5013759;28;20050;-71
2021/12/08 10:55:43;;;;;;;236.38;52.35;;;;;;;-5.70;72.89;102022.84;5013865;28;20045;-70
2021/12/08 10:58:25;;;;;;;92.65;23.58;;;;;;;-5.81;73.09;102003.31;5013188;28;20054;-70
2021/12/08 11:01:01;;;;;;;65.07;15.57;;;;;;;-5.71;72.72;102028.72;5013659;28;20050;-70
2021/12/08 11:03:35;;;;;;;37.35;10.15;;;;;;;-5.75;72.96;102024.16;5013661;28;20057;-69
2021/12/08 11:06:09;;;;;;;31.35;8.93;;;;;;;-5.83;73.54;102043.03;5013493;28;20112;-69
2021/12/08 11:08:43;;;;;;;24.55;7.35;;;;;;;-6.04;73.52;102023.56;5014106;28;20072;-70
2021/12/08 11:11:20;;;;;;;16.63;6.10;;;;;;;-6.12;73.21;102041.66;5013528;28;20400;-71
2021/12/08 11:13:54;;;;;;;32.55;9.35;;;;;;;-6.36;73.47;102032.13;5012581;28;20042;-70
2021/12/08 11:16:29;;;;;;;26.92;9.43;;;;;;;-6.36;73.66;102047.38;5013849;28;20061;-70
2021/12/08 11:19:04;;;;;;;25.40;7.85;;;;;;;-6.59;73.46;102031.16;5013551;28;20050;-70
2021/12/08 11:21:39;;;;;;;18.08;8.90;;;;;;;-6.54;74.24;102050.22;5013401;28;20457;-69
2021/12/08 11:24:21;;;;;;;23.35;8.85;;;;;;;-6.54;75.05;102042.59;5013886;28;20042;-71
2021/12/08 11:26:54;;;;;;;21.60;8.85;;;;;;;-6.51;75.13;102035.19;5013702;28;20046;-69
2021/12/08 11:29:27;;;;;;;19.67;7.97;;;;;;;-6.37;74.91;102048.13;5013601;28;20053;-70
2021/12/08 11:32:02;;;;;;;31.77;9.38;;;;;;;-6.42;75.10;102044.31;5013688;28;20117;-69
2021/12/08 11:34:37;;;;;;;23.55;8.30;;;;;;;-6.41;74.83;102046.13;5013663;28;21221;-69
2021/12/08 11:37:12;;;;;;;28.08;8.05;;;;;;;-6.46;75.17;102058.47;5013314;28;20084;-69
2021/12/08 11:39:44;;;;;;;20.67;8.60;;;;;;;-6.52;74.73;102042.69;5013844;28;20222;-70
2021/12/08 11:42:18;;;;;;;26.58;8.90;;;;;;;-6.53;74.73;102040.91;5013611;28;20120;-69
2021/12/08 11:44:51;;;;;;;23.23;8.30;;;;;;;-6.72;74.68;102033.44;5013536;28;20060;-69
2021/12/08 11:47:27;;;;;;;20.45;9.30;;;;;;;-6.80;74.12;102047.19;5013552;28;20054;-69
2021/12/08 11:50:00;;;;;;;20.42;9.80;;;;;;;-6.89;74.53;102047.31;5013519;28;20038;-69
2021/12/08 11:52:32;;;;;;;28.88;10.65;;;;;;;-6.95;74.40;102055.31;5016929;28;20041;-69
2021/12/08 11:55:06;;;;;;;32.50;11.45;;;;;;;-6.95;74.34;102059.53;5017261;28;20140;-69
2021/12/08 11:57:40;;;;;;;38.63;11.95;;;;;;;-7.03;74.43;102056.34;5017212;28;20136;-68
2021/12/08 12:00:15;;;;;;;38.75;14.10;;;;;;;-7.01;74.67;102044.66;5016478;28;20061;-69
2021/12/08 12:02:53;;;;;;;32.78;11.88;;;;;;;-6.96;74.66;102056.09;5016299;28;20054;-69
2021/12/08 12:05:28;;;;;;;26.40;10.48;;;;;;;-6.99;75.17;102048.22;5015922;28;20258;-69
2021/12/08 12:07:59;;;;;;;35.85;11.10;;;;;;;-6.95;74.88;102036.66;5016032;28;20042;-68
2021/12/08 12:10:35;;;;;;;31.13;10.90;;;;;;;-6.79;74.64;102056.56;5016894;28;20218;-69
2021/12/08 12:13:08;;;;;;;324.60;64.32;;;;;;;-6.84;74.38;102062.94;5017117;28;20061;-70
2021/12/08 12:15:41;;;;;;;356.20;65.95;;;;;;;-7.02;74.31;102047.94;5017059;28;20081;-69
2021/12/08 12:18:15;;;;;;;532.35;107.18;;;;;;;-6.98;74.77;102055.06;5017136;28;20252;-69
2021/12/08 12:20:48;;;;;;;571.47;121.40;;;;;;;-7.05;74.63;102052.78;5016719;28;20042;-70